createdAt,value
2016-07-01T00:00:45.715Z,23.65
2016-07-01T00:01:45.125Z,23.66
2016-07-01T00:02:45.723Z,23.61
2016-07-01T00:03:45.166Z,23.66
2016-07-01T00:04:45.189Z,23.61
2016-07-01T00:05:45.118Z,23.7
2016-07-01T00:06:45.122Z,23.63
2016-07-01T00:07:45.753Z,23.57
2016-07-01T00:08:45.764Z,23.69
2016-07-01T00:09:45.140Z,23.58
2016-07-01T00:10:45.786Z,23.61
2016-07-01T00:11:45.764Z,23.68
2016-07-01T00:12:45.169Z,23.65
2016-07-01T00:13:45.812Z,23.63
2016-07-01T00:14:45.167Z,23.65
2016-07-01T00:15:45.802Z,23.63
2016-07-01T00:16:45.171Z,23.68
2016-07-01T00:17:45.813Z,23.6
2016-07-01T00:18:45.828Z,23.63
2016-07-01T00:19:45.812Z,23.6
2016-07-01T00:20:45.811Z,23.69
2016-07-01T00:21:45.825Z,23.54
2016-07-01T00:22:45.195Z,23.66
2016-07-01T00:23:45.834Z,23.66
2016-07-01T00:24:44.614Z,23.61
2016-07-01T00:25:45.849Z,23.68
2016-07-01T00:26:45.844Z,23.66
2016-07-01T00:27:45.243Z,23.63
2016-07-01T00:28:45.235Z,23.75
2016-07-01T00:29:45.236Z,23.73
2016-07-01T00:30:45.875Z,23.69
2016-07-01T00:31:45.268Z,23.66
2016-07-01T00:32:44.633Z,23.61
2016-07-01T00:33:45.875Z,23.6
2016-07-01T00:34:45.877Z,23.65
2016-07-01T00:35:44.651Z,23.68
2016-07-01T00:36:45.293Z,23.63
2016-07-01T00:37:45.278Z,23.58
2016-07-01T00:38:44.668Z,23.66
2016-07-01T00:39:45.916Z,23.69
2016-07-01T00:40:45.301Z,23.5
2016-07-01T00:41:44.685Z,23.57
2016-07-01T00:42:45.918Z,23.51
2016-07-01T00:43:44.689Z,23.48
2016-07-01T00:44:45.930Z,23.55
2016-07-01T00:45:45.946Z,23.57
2016-07-01T00:46:44.700Z,23.66
2016-07-01T00:47:44.719Z,23.7
2016-07-01T00:48:45.985Z,23.68
2016-07-01T00:49:45.338Z,23.58
2016-07-01T00:50:46.002Z,23.58
2016-07-01T00:51:45.958Z,23.61
2016-07-01T00:52:45.366Z,23.63
2016-07-01T00:53:45.985Z,23.68
2016-07-01T00:54:45.983Z,23.61
2016-07-01T00:55:45.998Z,23.54
2016-07-01T00:56:45.987Z,23.65
2016-07-01T00:57:46.006Z,23.58
2016-07-01T00:58:46.014Z,23.69
2016-07-01T00:59:45.388Z,23.68
2016-07-01T01:00:45.445Z,23.61
2016-07-01T01:01:46.035Z,23.53
2016-07-01T01:02:46.021Z,23.55
2016-07-01T01:03:45.422Z,23.57
2016-07-01T01:04:46.090Z,23.55
2016-07-01T01:05:44.818Z,23.63
2016-07-01T01:06:45.419Z,23.6
2016-07-01T01:07:46.124Z,23.61
2016-07-01T01:08:46.074Z,23.61
2016-07-01T01:09:45.441Z,23.68
2016-07-01T01:10:45.445Z,23.63
2016-07-01T01:11:46.069Z,23.66
2016-07-01T01:12:46.065Z,23.69
2016-07-01T01:13:45.512Z,23.66
2016-07-01T01:14:46.120Z,23.68
2016-07-01T01:15:45.490Z,23.63
2016-07-01T01:16:46.099Z,23.57
2016-07-01T01:17:45.489Z,23.55
2016-07-01T01:18:46.100Z,23.5
2016-07-01T01:19:45.495Z,23.48
2016-07-01T01:20:45.509Z,23.58
2016-07-01T01:21:46.139Z,23.57
2016-07-01T01:22:45.513Z,23.69
2016-07-01T01:23:46.159Z,23.55
2016-07-01T01:24:45.513Z,23.51
2016-07-01T01:25:46.145Z,23.61
2016-07-01T01:26:46.146Z,23.57
2016-07-01T01:27:46.151Z,23.47
2016-07-01T01:28:45.533Z,23.61
2016-07-01T01:29:45.547Z,23.42
2016-07-01T01:30:46.174Z,23.57
2016-07-01T01:31:46.174Z,23.54
2016-07-01T01:32:45.569Z,23.5
2016-07-01T01:33:45.579Z,23.4
2016-07-01T01:34:46.183Z,23.36
2016-07-01T01:35:46.201Z,23.38
2016-07-01T01:36:46.189Z,23.48
2016-07-01T01:37:46.210Z,23.51
2016-07-01T01:38:46.208Z,23.51
2016-07-01T01:39:44.993Z,23.58
2016-07-01T01:40:45.623Z,23.54
2016-07-01T01:41:46.268Z,23.51
2016-07-01T01:42:46.233Z,23.51
2016-07-01T01:43:45.621Z,23.55
2016-07-01T01:44:45.626Z,23.6
2016-07-01T01:45:46.250Z,23.54
2016-07-01T01:46:45.623Z,23.55
2016-07-01T01:47:46.263Z,23.5
2016-07-01T01:48:45.640Z,23.51
2016-07-01T01:49:45.040Z,23.55
2016-07-01T01:50:45.646Z,23.5
2016-07-01T01:51:45.651Z,23.4
2016-07-01T01:52:45.655Z,23.39
2016-07-01T01:53:45.660Z,23.43
2016-07-01T01:54:46.360Z,23.42
2016-07-01T01:55:46.290Z,23.54
2016-07-01T01:56:46.318Z,23.5
2016-07-01T01:57:45.687Z,23.55
2016-07-01T01:58:45.700Z,23.58
2016-07-01T01:59:45.080Z,23.57
2016-07-01T02:00:46.342Z,23.6
2016-07-01T02:01:46.331Z,23.53
2016-07-01T02:02:46.399Z,23.54
2016-07-01T02:03:45.102Z,23.57
2016-07-01T02:04:45.729Z,23.54
2016-07-01T02:05:45.108Z,23.54
2016-07-01T02:06:46.350Z,23.53
2016-07-01T02:07:46.367Z,23.53
2016-07-01T02:08:46.377Z,23.46
2016-07-01T02:09:46.362Z,23.47
2016-07-01T02:10:46.382Z,23.57
2016-07-01T02:11:45.761Z,23.51
2016-07-01T02:12:46.406Z,23.55
2016-07-01T02:13:46.405Z,23.6
2016-07-01T02:14:46.402Z,23.6
2016-07-01T02:15:46.406Z,23.58
2016-07-01T02:16:45.808Z,23.58
2016-07-01T02:17:45.801Z,23.55
2016-07-01T02:18:45.200Z,23.6
2016-07-01T02:19:45.815Z,23.55
2016-07-01T02:20:46.430Z,23.55
2016-07-01T02:21:46.462Z,23.53
2016-07-01T02:22:46.446Z,23.58
2016-07-01T02:23:45.201Z,23.53
2016-07-01T02:24:45.825Z,23.4
2016-07-01T02:25:45.829Z,23.27
2016-07-01T02:26:46.467Z,23.42
2016-07-01T02:27:45.839Z,23.48
2016-07-01T02:28:45.855Z,23.53
2016-07-01T02:29:45.854Z,23.58
2016-07-01T02:30:46.485Z,23.53
2016-07-01T02:31:46.480Z,23.39
2016-07-01T02:32:46.502Z,23.46
2016-07-01T02:33:45.875Z,23.46
2016-07-01T02:34:45.875Z,23.4
2016-07-01T02:35:46.510Z,23.35
2016-07-01T02:36:46.520Z,23.36
2016-07-01T02:37:46.514Z,23.4
2016-07-01T02:38:46.521Z,23.5
2016-07-01T02:39:45.896Z,23.48
2016-07-01T02:40:45.902Z,23.5
2016-07-01T02:41:45.297Z,23.43
2016-07-01T02:42:45.938Z,23.46
2016-07-01T02:43:45.951Z,23.47
2016-07-01T02:44:45.922Z,23.5
2016-07-01T02:45:46.565Z,23.47
2016-07-01T02:46:46.562Z,23.38
2016-07-01T02:47:45.324Z,23.46
2016-07-01T02:48:46.568Z,23.4
2016-07-01T02:49:46.573Z,23.4
2016-07-01T02:50:45.961Z,23.33
2016-07-01T02:51:45.339Z,23.33
2016-07-01T02:52:46.593Z,23.39
2016-07-01T02:53:46.609Z,23.39
2016-07-01T02:54:46.003Z,23.35
2016-07-01T02:55:46.595Z,23.31
2016-07-01T02:56:46.002Z,23.22
2016-07-01T02:57:45.993Z,23.31
2016-07-01T02:58:45.993Z,23.32
2016-07-01T02:59:46.023Z,23.27
2016-07-01T03:00:46.636Z,23.27
2016-07-01T03:01:46.629Z,23.46
2016-07-01T03:02:46.640Z,23.39
2016-07-01T03:03:46.638Z,23.39
2016-07-01T03:04:46.028Z,23.32
2016-07-01T03:05:46.026Z,23.42
2016-07-01T03:06:46.652Z,23.32
2016-07-01T03:07:46.714Z,23.36
2016-07-01T03:08:46.662Z,23.43
2016-07-01T03:09:46.071Z,23.39
2016-07-01T03:10:46.729Z,23.36
2016-07-01T03:11:46.065Z,23.46
2016-07-01T03:12:46.699Z,23.42
2016-07-01T03:13:46.081Z,23.43
2016-07-01T03:14:46.081Z,23.4
2016-07-01T03:15:46.710Z,23.42
2016-07-01T03:16:46.712Z,23.23
2016-07-01T03:17:46.093Z,23.17
2016-07-01T03:18:46.110Z,23.22
2016-07-01T03:19:46.099Z,23.25
2016-07-01T03:20:46.130Z,23.33
2016-07-01T03:21:46.814Z,23.36
2016-07-01T03:22:45.519Z,23.32
2016-07-01T03:23:46.127Z,23.35
2016-07-01T03:24:46.142Z,23.46
2016-07-01T03:25:46.202Z,23.42
2016-07-01T03:26:46.769Z,23.39
2016-07-01T03:27:46.777Z,23.42
2016-07-01T03:28:46.159Z,23.42
2016-07-01T03:29:45.541Z,23.36
2016-07-01T03:30:46.189Z,23.28
2016-07-01T03:31:45.542Z,23.32
2016-07-01T03:32:46.784Z,23.32
2016-07-01T03:33:46.173Z,23.28
2016-07-01T03:34:46.197Z,23.32
2016-07-01T03:35:45.566Z,23.31
2016-07-01T03:36:46.821Z,23.39
2016-07-01T03:37:46.818Z,23.33
2016-07-01T03:38:46.851Z,23.28
2016-07-01T03:39:46.837Z,23.33
2016-07-01T03:40:45.588Z,23.35
2016-07-01T03:41:46.842Z,23.35
2016-07-01T03:42:46.223Z,23.27
2016-07-01T03:43:46.870Z,23.36
2016-07-01T03:44:45.634Z,23.39
2016-07-01T03:45:46.246Z,23.39
2016-07-01T03:46:46.866Z,23.39
2016-07-01T03:47:46.255Z,23.31
2016-07-01T03:48:46.878Z,23.38
2016-07-01T03:49:46.264Z,23.28
2016-07-01T03:50:46.887Z,23.31
2016-07-01T03:51:46.888Z,23.16
2016-07-01T03:52:46.274Z,23.27
2016-07-01T03:53:46.890Z,23.2
2016-07-01T03:54:46.897Z,23.15
2016-07-01T03:55:46.293Z,23.32
2016-07-01T03:56:45.673Z,23.35
2016-07-01T03:57:46.310Z,23.38
2016-07-01T03:58:45.685Z,23.31
2016-07-01T03:59:46.918Z,23.33
2016-07-01T04:00:46.319Z,23.36
2016-07-01T04:01:46.946Z,23.38
2016-07-01T04:02:46.347Z,23.36
2016-07-01T04:03:46.954Z,23.25
2016-07-01T04:04:46.955Z,23.22
2016-07-01T04:05:46.353Z,23.13
2016-07-01T04:06:46.977Z,23.23
2016-07-01T04:07:47.027Z,23.22
2016-07-01T04:08:46.350Z,23.15
2016-07-01T04:09:46.364Z,23.22
2016-07-01T04:10:46.991Z,23.32
2016-07-01T04:11:45.741Z,23.23
2016-07-01T04:12:46.382Z,23.23
2016-07-01T04:13:46.381Z,23.13
2016-07-01T04:14:46.392Z,23.22
2016-07-01T04:15:47.062Z,23.19
2016-07-01T04:16:45.780Z,23.2
2016-07-01T04:17:46.403Z,23.05
2016-07-01T04:18:47.026Z,23.27
2016-07-01T04:19:46.401Z,23.16
2016-07-01T04:20:47.038Z,22.98
2016-07-01T04:21:47.034Z,23.15
2016-07-01T04:22:46.425Z,23.16
2016-07-01T04:23:47.042Z,23.17
2016-07-01T04:24:47.049Z,23.15
2016-07-01T04:25:47.060Z,23.22
2016-07-01T04:26:47.109Z,23.12
2016-07-01T04:27:45.859Z,23.2
2016-07-01T04:28:45.836Z,23.27
2016-07-01T04:29:45.843Z,23.2
2016-07-01T04:30:46.463Z,23.2
2016-07-01T04:31:45.827Z,23.13
2016-07-01T04:32:45.841Z,23.33
2016-07-01T04:33:46.471Z,23.38
2016-07-01T04:34:46.466Z,23.28
2016-07-01T04:35:47.110Z,23.33
2016-07-01T04:36:47.112Z,23.28
2016-07-01T04:37:46.486Z,23.35
2016-07-01T04:38:47.123Z,23.31
2016-07-01T04:39:46.510Z,23.27
2016-07-01T04:40:47.143Z,23.22
2016-07-01T04:41:45.891Z,23.19
2016-07-01T04:42:47.132Z,23.19
2016-07-01T04:43:46.525Z,23.27
2016-07-01T04:44:45.909Z,23.32
2016-07-01T04:45:47.379Z,23.19
2016-07-01T04:46:47.168Z,23.31
2016-07-01T04:47:46.548Z,23.22
2016-07-01T04:48:46.545Z,23.15
2016-07-01T04:49:46.546Z,23.22
2016-07-01T04:50:47.179Z,23.13
2016-07-01T04:51:46.567Z,23.13
2016-07-01T04:52:46.571Z,23.2
2016-07-01T04:53:47.241Z,23.32
2016-07-01T04:54:47.193Z,23.15
2016-07-01T04:55:47.204Z,23.15
2016-07-01T04:56:47.207Z,23.17
2016-07-01T04:57:47.225Z,23.12
2016-07-01T04:58:46.842Z,23.15
2016-07-01T04:59:47.245Z,23.28
2016-07-01T05:00:45.992Z,23.28
2016-07-01T05:01:47.226Z,23.35
2016-07-01T05:02:47.235Z,23.35
2016-07-01T05:03:46.004Z,23.35
2016-07-01T05:04:47.255Z,23.35
2016-07-01T05:05:46.634Z,23.33
2016-07-01T05:06:47.253Z,23.32
2016-07-01T05:07:47.269Z,23.36
2016-07-01T05:08:47.278Z,23.33
2016-07-01T05:09:46.660Z,23.35
2016-07-01T05:10:47.281Z,23.35
2016-07-01T05:11:46.658Z,23.36
2016-07-01T05:12:47.287Z,23.31
2016-07-01T05:13:46.061Z,23.39
2016-07-01T05:14:47.295Z,23.31
2016-07-01T05:15:46.676Z,23.35
2016-07-01T05:16:46.681Z,23.35
2016-07-01T05:17:47.312Z,23.27
2016-07-01T05:18:46.071Z,23.33
2016-07-01T05:19:47.323Z,23.32
2016-07-01T05:20:46.695Z,23.33
2016-07-01T05:21:47.336Z,23.31
2016-07-01T05:22:46.722Z,23.33
2016-07-01T05:23:47.377Z,23.33
2016-07-01T05:24:47.344Z,23.32
2016-07-01T05:25:46.726Z,23.31
2016-07-01T05:26:47.354Z,23.28
2016-07-01T05:27:46.129Z,23.19
2016-07-01T05:28:46.740Z,23.36
2016-07-01T05:29:46.745Z,23.31
2016-07-01T05:30:46.127Z,23.33
2016-07-01T05:31:47.397Z,23.28
2016-07-01T05:32:46.155Z,23.33
2016-07-01T05:33:47.407Z,23.32
2016-07-01T05:34:46.786Z,23.4
2016-07-01T05:35:46.789Z,23.39
2016-07-01T05:36:46.170Z,23.38
2016-07-01T05:37:46.189Z,23.36
2016-07-01T05:38:47.418Z,23.4
2016-07-01T05:39:46.807Z,23.25
2016-07-01T05:40:47.437Z,23.36
2016-07-01T05:41:46.821Z,23.35
2016-07-01T05:42:46.827Z,23.31
2016-07-01T05:43:47.458Z,23.4
2016-07-01T05:44:46.831Z,23.4
2016-07-01T05:45:46.842Z,23.42
2016-07-01T05:46:46.845Z,23.4
2016-07-01T05:47:47.467Z,23.4
2016-07-01T05:48:46.259Z,23.38
2016-07-01T05:49:47.483Z,23.32
2016-07-01T05:50:46.888Z,23.35
2016-07-01T05:51:46.892Z,23.25
2016-07-01T05:52:46.265Z,23.28
2016-07-01T05:53:46.276Z,23.25
2016-07-01T05:54:46.880Z,23.33
2016-07-01T05:55:46.893Z,23.32
2016-07-01T05:56:46.280Z,23.32
2016-07-01T05:57:46.923Z,23.31
2016-07-01T05:58:46.908Z,23.32
2016-07-01T05:59:46.918Z,23.35
2016-07-01T06:00:46.906Z,23.33
2016-07-01T06:01:47.531Z,23.33
2016-07-01T06:02:47.559Z,23.31
2016-07-01T06:03:46.931Z,23.4
2016-07-01T06:04:46.947Z,23.38
2016-07-01T06:05:47.565Z,23.4
2016-07-01T06:06:47.555Z,23.48
2016-07-01T06:07:47.579Z,23.47
2016-07-01T06:08:47.570Z,23.33
2016-07-01T06:09:46.981Z,23.31
2016-07-01T06:10:46.375Z,23.32
2016-07-01T06:11:47.592Z,23.25
2016-07-01T06:12:46.972Z,23.33
2016-07-01T06:13:46.389Z,23.19
2016-07-01T06:14:46.984Z,23.05
2016-07-01T06:15:47.636Z,23.09
2016-07-01T06:16:46.385Z,23.17
2016-07-01T06:17:47.636Z,23.17
2016-07-01T06:18:47.012Z,23.17
2016-07-01T06:19:47.019Z,23.16
2016-07-01T06:20:47.637Z,23.16
2016-07-01T06:21:47.639Z,23.22
2016-07-01T06:22:47.681Z,23.23
2016-07-01T06:23:46.422Z,23.32
2016-07-01T06:24:47.717Z,23.23
2016-07-01T06:25:47.674Z,23.28
2016-07-01T06:26:47.066Z,23.32
2016-07-01T06:27:47.055Z,23.32
2016-07-01T06:28:47.686Z,23.38
2016-07-01T06:29:46.473Z,23.32
2016-07-01T06:30:47.093Z,23.32
2016-07-01T06:31:47.106Z,23.35
2016-07-01T06:32:47.723Z,23.36
2016-07-01T06:33:47.088Z,23.23
2016-07-01T06:34:47.092Z,23.38
2016-07-01T06:35:47.106Z,23.32
2016-07-01T06:36:47.135Z,23.33
2016-07-01T06:37:47.122Z,23.36
2016-07-01T06:38:47.750Z,23.38
2016-07-01T06:39:47.113Z,23.35
2016-07-01T06:40:47.758Z,23.32
2016-07-01T06:41:47.157Z,23.28
2016-07-01T06:42:47.149Z,23.31
2016-07-01T06:43:47.158Z,23.32
2016-07-01T06:44:47.147Z,23.33
2016-07-01T06:45:47.774Z,23.39
2016-07-01T06:46:47.790Z,23.38
2016-07-01T06:47:47.800Z,23.39
2016-07-01T06:48:47.204Z,23.43
2016-07-01T06:49:47.174Z,23.39
2016-07-01T06:50:47.183Z,23.39
2016-07-01T06:51:47.179Z,23.42
2016-07-01T06:52:47.194Z,23.36
2016-07-01T06:53:47.209Z,23.39
2016-07-01T06:54:47.207Z,23.46
2016-07-01T06:55:46.599Z,23.39
2016-07-01T06:56:47.222Z,23.32
2016-07-01T06:57:47.856Z,23.33
2016-07-01T06:58:47.851Z,23.33
2016-07-01T06:59:47.253Z,23.39
2016-07-01T07:00:47.852Z,23.36
2016-07-01T07:01:47.867Z,23.38
2016-07-01T07:02:47.269Z,23.58
2016-07-01T07:03:47.246Z,23.69
2016-07-01T07:04:47.251Z,23.63
2016-07-01T07:05:47.263Z,23.66
2016-07-01T07:06:47.277Z,23.65
2016-07-01T07:07:46.657Z,23.69
2016-07-01T07:08:47.276Z,23.68
2016-07-01T07:09:47.301Z,23.57
2016-07-01T07:10:47.973Z,23.48
2016-07-01T07:11:46.686Z,23.51
2016-07-01T07:12:47.927Z,23.54
2016-07-01T07:13:47.934Z,23.58
2016-07-01T07:14:46.707Z,23.58
2016-07-01T07:15:47.349Z,23.54
2016-07-01T07:16:47.339Z,23.54
2016-07-01T07:17:46.730Z,23.53
2016-07-01T07:18:47.342Z,23.54
2016-07-01T07:19:47.975Z,23.57
2016-07-01T07:20:47.977Z,23.55
2016-07-01T07:21:47.392Z,23.48
2016-07-01T07:22:47.359Z,23.55
2016-07-01T07:23:48.006Z,23.53
2016-07-01T07:24:47.430Z,23.61
2016-07-01T07:25:48.015Z,23.61
2016-07-01T07:26:48.027Z,23.55
2016-07-01T07:27:48.008Z,23.57
2016-07-01T07:28:47.401Z,23.51
2016-07-01T07:29:48.034Z,23.54
2016-07-01T07:30:47.453Z,23.6
2016-07-01T07:31:47.412Z,23.63
2016-07-01T07:32:48.040Z,23.58
2016-07-01T07:33:47.446Z,23.53
2016-07-01T07:34:47.431Z,23.55
2016-07-01T07:35:47.439Z,23.57
2016-07-01T07:36:48.060Z,23.55
2016-07-01T07:37:47.457Z,23.61
2016-07-01T07:38:48.085Z,23.61
2016-07-01T07:39:47.475Z,23.47
2016-07-01T07:40:47.486Z,23.55
2016-07-01T07:41:48.108Z,23.54
2016-07-01T07:42:48.120Z,23.57
2016-07-01T07:43:48.128Z,23.53
2016-07-01T07:44:47.485Z,23.54
2016-07-01T07:45:47.508Z,23.58
2016-07-01T07:46:47.505Z,23.58
2016-07-01T07:47:47.510Z,23.58
2016-07-01T07:48:48.153Z,23.58
2016-07-01T07:49:47.530Z,23.57
2016-07-01T07:50:48.150Z,23.58
2016-07-01T07:51:47.540Z,23.58
2016-07-01T07:52:46.919Z,23.57
2016-07-01T07:53:48.152Z,23.51
2016-07-01T07:54:48.186Z,23.6
2016-07-01T07:55:48.177Z,23.55
2016-07-01T07:56:47.559Z,23.51
2016-07-01T07:57:47.607Z,23.53
2016-07-01T07:58:46.956Z,23.51
2016-07-01T07:59:47.583Z,23.57
2016-07-01T08:00:48.195Z,23.53
2016-07-01T08:01:47.588Z,23.58
2016-07-01T08:02:48.211Z,23.55
2016-07-01T08:03:48.214Z,23.58
2016-07-01T08:04:47.614Z,23.57
2016-07-01T08:05:48.231Z,23.54
2016-07-01T08:06:46.995Z,23.5
2016-07-01T08:07:47.637Z,23.6
2016-07-01T08:08:47.629Z,23.6
2016-07-01T08:09:48.335Z,23.57
2016-07-01T08:10:48.519Z,23.54
2016-07-01T08:11:48.268Z,23.51
2016-07-01T08:12:48.285Z,23.58
2016-07-01T08:13:47.662Z,23.63
2016-07-01T08:14:47.665Z,23.69
2016-07-01T08:15:47.041Z,23.53
2016-07-01T08:16:48.293Z,23.63
2016-07-01T08:17:47.700Z,23.63
2016-07-01T08:18:47.692Z,23.6
2016-07-01T08:19:48.316Z,23.66
2016-07-01T08:20:47.699Z,23.65
2016-07-01T08:21:47.082Z,23.63
2016-07-01T08:22:48.338Z,23.68
2016-07-01T08:23:48.337Z,23.51
2016-07-01T08:24:47.150Z,23.75
2016-07-01T08:25:47.725Z,23.6
2016-07-01T08:26:47.724Z,23.76
2016-07-01T08:27:47.750Z,23.54
2016-07-01T08:28:47.120Z,23.63
2016-07-01T08:29:48.403Z,23.79
2016-07-01T08:30:47.791Z,23.66
2016-07-01T08:31:48.493Z,23.58
2016-07-01T08:32:47.779Z,23.63
2016-07-01T08:33:47.766Z,23.57
2016-07-01T08:34:47.162Z,23.75
2016-07-01T08:35:47.786Z,23.61
2016-07-01T08:36:48.404Z,23.57
2016-07-01T08:37:47.869Z,23.65
2016-07-01T08:38:47.222Z,23.6
2016-07-01T08:39:48.425Z,23.73
2016-07-01T08:40:47.804Z,23.63
2016-07-01T08:41:47.857Z,23.73
2016-07-01T08:42:47.819Z,23.69
2016-07-01T08:43:48.467Z,23.68
2016-07-01T08:44:48.466Z,23.73
2016-07-01T08:45:48.461Z,23.73
2016-07-01T08:46:47.863Z,23.68
2016-07-01T08:47:47.860Z,23.66
2016-07-01T08:48:47.869Z,23.7
2016-07-01T08:49:47.884Z,23.69
2016-07-01T08:50:47.875Z,23.69
2016-07-01T08:51:47.877Z,23.73
2016-07-01T08:52:47.911Z,23.68
2016-07-01T08:53:47.916Z,23.66
2016-07-01T08:54:47.292Z,23.68
2016-07-01T08:55:48.521Z,23.73
2016-07-01T08:56:47.906Z,23.72
2016-07-01T08:57:48.557Z,23.72
2016-07-01T08:58:47.321Z,23.68
2016-07-01T08:59:48.543Z,23.69
2016-07-01T09:00:47.936Z,23.63
2016-07-01T09:01:48.562Z,23.8
2016-07-01T09:02:47.998Z,23.68
2016-07-01T09:03:48.571Z,23.61
2016-07-01T09:04:47.349Z,23.65
2016-07-01T09:05:48.591Z,23.69
2016-07-01T09:06:48.701Z,23.69
2016-07-01T09:07:48.001Z,23.72
2016-07-01T09:08:48.010Z,23.7
2016-07-01T09:09:48.153Z,23.68
2016-07-01T09:10:48.669Z,23.65
2016-07-01T09:11:48.614Z,23.57
2016-07-01T09:12:48.018Z,23.66
2016-07-01T09:13:48.014Z,23.73
2016-07-01T09:14:48.040Z,23.65
2016-07-01T09:15:48.666Z,23.66
2016-07-01T09:16:48.658Z,23.75
2016-07-01T09:17:48.664Z,23.69
2016-07-01T09:18:48.669Z,23.68
2016-07-01T09:19:48.050Z,23.69
2016-07-01T09:20:48.063Z,23.68
2016-07-01T09:21:48.082Z,23.69
2016-07-01T09:22:48.073Z,23.75
2016-07-01T09:23:47.450Z,23.63
2016-07-01T09:24:48.081Z,23.78
2016-07-01T09:25:48.721Z,23.7
2016-07-01T09:26:48.122Z,23.66
2016-07-01T09:27:48.730Z,23.61
2016-07-01T09:28:48.728Z,23.6
2016-07-01T09:29:48.743Z,23.76
2016-07-01T09:30:48.136Z,23.7
2016-07-01T09:31:48.125Z,23.73
2016-07-01T09:32:48.470Z,23.7
2016-07-01T09:33:48.140Z,23.69
2016-07-01T09:34:48.776Z,23.69
2016-07-01T09:35:48.770Z,23.69
2016-07-01T09:36:48.766Z,23.73
2016-07-01T09:37:48.181Z,23.69
2016-07-01T09:38:48.160Z,23.78
2016-07-01T09:39:48.189Z,23.7
2016-07-01T09:40:48.196Z,23.66
2016-07-01T09:41:48.808Z,23.66
2016-07-01T09:42:49.042Z,23.7
2016-07-01T09:43:48.197Z,23.73
2016-07-01T09:44:48.203Z,23.72
2016-07-01T09:45:48.217Z,23.75
2016-07-01T09:46:47.594Z,23.72
2016-07-01T09:47:48.842Z,23.66
2016-07-01T09:48:48.215Z,23.73
2016-07-01T09:49:48.275Z,23.75
2016-07-01T09:50:48.244Z,23.76
2016-07-01T09:51:48.854Z,23.73
2016-07-01T09:52:47.626Z,23.7
2016-07-01T09:53:48.251Z,23.69
2016-07-01T09:54:48.248Z,23.7
2016-07-01T09:55:48.278Z,23.69
2016-07-01T09:56:47.654Z,23.66
2016-07-01T09:57:48.285Z,23.73
2016-07-01T09:58:48.287Z,23.85
2016-07-01T09:59:48.930Z,23.73
2016-07-01T10:00:48.914Z,23.72
2016-07-01T10:01:48.961Z,23.69
2016-07-01T10:02:48.938Z,23.72
2016-07-01T10:03:48.314Z,23.76
2016-07-01T10:04:48.336Z,23.61
2016-07-01T10:05:48.942Z,23.79
2016-07-01T10:06:48.332Z,23.72
2016-07-01T10:07:47.717Z,23.73
2016-07-01T10:08:48.970Z,23.68
2016-07-01T10:09:49.025Z,23.63
2016-07-01T10:10:48.349Z,23.68
2016-07-01T10:11:48.346Z,23.72
2016-07-01T10:12:48.369Z,23.73
2016-07-01T10:13:48.996Z,23.7
2016-07-01T10:14:48.387Z,23.7
2016-07-01T10:15:48.421Z,23.73
2016-07-01T10:16:49.017Z,23.69
2016-07-01T10:17:49.021Z,23.69
2016-07-01T10:18:49.031Z,23.7
2016-07-01T10:19:48.409Z,23.69
2016-07-01T10:20:48.414Z,23.69
2016-07-01T10:21:49.047Z,23.68
2016-07-01T10:22:49.053Z,23.85
2016-07-01T10:23:48.440Z,23.83
2016-07-01T10:24:47.833Z,23.83
2016-07-01T10:25:47.826Z,23.85
2016-07-01T10:26:47.866Z,23.76
2016-07-01T10:27:48.461Z,23.83
2016-07-01T10:28:47.845Z,23.78
2016-07-01T10:29:48.829Z,23.79
2016-07-01T10:30:49.141Z,23.84
2016-07-01T10:31:47.867Z,23.79
2016-07-01T10:32:48.489Z,23.84
2016-07-01T10:33:49.114Z,23.72
2016-07-01T10:34:48.506Z,23.84
2016-07-01T10:35:48.514Z,23.9
2016-07-01T10:36:49.131Z,23.87
2016-07-01T10:37:49.196Z,23.8
2016-07-01T10:38:49.156Z,23.83
2016-07-01T10:39:49.160Z,23.84
2016-07-01T10:40:48.543Z,23.83
2016-07-01T10:41:49.171Z,23.76
2016-07-01T10:42:48.552Z,23.84
2016-07-01T10:43:49.186Z,23.8
2016-07-01T10:44:48.575Z,23.8
2016-07-01T10:45:49.194Z,23.83
2016-07-01T10:46:48.586Z,23.76
2016-07-01T10:47:48.578Z,23.73
2016-07-01T10:48:48.593Z,23.69
2016-07-01T10:49:48.597Z,23.76
2016-07-01T10:50:49.227Z,23.69
2016-07-01T10:51:49.262Z,23.72
2016-07-01T10:52:48.617Z,23.7
2016-07-01T10:53:49.245Z,23.68
2016-07-01T10:54:48.632Z,23.65
2016-07-01T10:55:48.025Z,23.73
2016-07-01T10:56:48.641Z,23.73
2016-07-01T10:57:48.025Z,23.73
2016-07-01T10:58:48.662Z,23.78
2016-07-01T10:59:48.657Z,23.78
2016-07-01T11:00:48.657Z,23.66
2016-07-01T11:01:49.307Z,23.73
2016-07-01T11:02:49.290Z,23.68
2016-07-01T11:03:48.682Z,23.72
2016-07-01T11:04:48.714Z,23.73
2016-07-01T11:05:48.070Z,23.69
2016-07-01T11:06:48.701Z,23.7
2016-07-01T11:07:48.091Z,23.61
2016-07-01T11:08:48.722Z,23.65
2016-07-01T11:09:49.378Z,23.61
2016-07-01T11:10:49.350Z,23.63
2016-07-01T11:11:48.736Z,23.68
2016-07-01T11:12:48.742Z,23.78
2016-07-01T11:13:48.757Z,23.65
2016-07-01T11:14:48.745Z,23.55
2016-07-01T11:15:48.756Z,23.61
2016-07-01T11:16:48.158Z,23.66
2016-07-01T11:17:48.768Z,23.7
2016-07-01T11:18:49.384Z,23.58
2016-07-01T11:19:49.413Z,23.63
2016-07-01T11:20:49.412Z,23.61
2016-07-01T11:21:48.790Z,23.73
2016-07-01T11:22:48.798Z,23.57
2016-07-01T11:23:48.801Z,23.6
2016-07-01T11:24:49.422Z,23.63
2016-07-01T11:25:48.199Z,23.68
2016-07-01T11:26:48.824Z,23.63
2016-07-01T11:27:48.815Z,23.68
2016-07-01T11:28:49.443Z,23.66
2016-07-01T11:29:49.499Z,23.58
2016-07-01T11:30:49.461Z,23.7
2016-07-01T11:31:48.847Z,23.65
2016-07-01T11:32:48.248Z,23.69
2016-07-01T11:33:48.855Z,23.6
2016-07-01T11:36:26.950Z,23.63
2016-07-01T11:37:12.103Z,23.61
2016-07-01T11:38:12.738Z,23.7
2016-07-01T11:39:12.750Z,23.61
2016-07-01T11:40:12.740Z,23.65
2016-07-01T11:41:12.140Z,23.76
2016-07-01T11:42:12.778Z,23.63
2016-07-01T11:43:12.755Z,23.65
2016-07-01T11:44:12.764Z,23.76
2016-07-01T11:45:12.167Z,23.69
2016-07-01T11:46:12.791Z,23.68
2016-07-01T11:47:12.163Z,23.58
2016-07-01T11:48:12.795Z,23.61
2016-07-01T11:49:12.812Z,23.61
2016-07-01T11:50:12.184Z,23.54
2016-07-01T11:51:12.812Z,23.61
2016-07-01T11:52:12.837Z,23.54
2016-07-01T11:53:12.821Z,23.58
2016-07-01T11:54:12.815Z,23.58
2016-07-01T11:55:12.846Z,23.66
2016-07-01T11:56:12.246Z,23.66
2016-07-01T11:57:12.839Z,23.66
2016-07-01T11:58:12.235Z,23.61
2016-07-01T11:59:12.247Z,23.57
2016-07-01T12:00:12.852Z,23.68
2016-07-01T12:01:13.083Z,23.63
2016-07-01T12:02:12.873Z,23.65
2016-07-01T12:03:11.640Z,23.57
2016-07-01T12:04:12.886Z,23.58
2016-07-01T12:05:12.893Z,23.61
2016-07-01T12:06:12.267Z,23.7
2016-07-01T12:07:12.296Z,23.68
2016-07-01T12:08:11.670Z,23.7
2016-07-01T12:09:12.915Z,23.55
2016-07-01T12:10:12.934Z,23.68
2016-07-01T12:11:12.913Z,23.63
2016-07-01T12:12:12.939Z,23.69
2016-07-01T12:13:12.938Z,23.54
2016-07-01T12:14:12.314Z,23.7
2016-07-01T12:15:12.952Z,23.6
2016-07-01T12:16:12.937Z,23.61
2016-07-01T12:17:12.351Z,23.55
2016-07-01T12:18:12.949Z,23.5
2016-07-01T12:19:11.737Z,23.54
2016-07-01T12:20:12.969Z,23.57
2016-07-01T12:21:12.374Z,23.58
2016-07-01T12:22:12.996Z,23.68
2016-07-01T12:23:12.990Z,23.58
2016-07-01T12:24:12.387Z,23.6
2016-07-01T12:25:12.390Z,23.55
2016-07-01T12:26:12.386Z,23.53
2016-07-01T12:27:12.389Z,23.5
2016-07-01T12:28:13.004Z,23.58
2016-07-01T12:29:13.358Z,23.58
2016-07-01T12:30:12.415Z,23.58
2016-07-01T12:31:12.487Z,23.54
2016-07-01T12:32:13.051Z,23.51
2016-07-01T12:33:11.809Z,23.53
2016-07-01T12:34:11.804Z,23.53
2016-07-01T12:35:12.431Z,23.51
2016-07-01T12:36:12.466Z,23.55
2016-07-01T12:37:12.469Z,23.47
2016-07-01T12:38:13.066Z,23.47
2016-07-01T12:39:13.060Z,23.51
2016-07-01T12:40:12.474Z,23.58
2016-07-01T12:41:13.106Z,23.51
2016-07-01T12:42:12.521Z,23.47
2016-07-01T12:43:13.070Z,23.38
2016-07-01T12:44:13.086Z,23.5
2016-07-01T12:45:11.841Z,23.43
2016-07-01T12:46:12.549Z,23.5
2016-07-01T12:47:12.476Z,23.48
2016-07-01T12:48:12.532Z,23.54
2016-07-01T12:49:12.531Z,23.51
2016-07-01T12:50:12.541Z,23.69
2016-07-01T12:51:12.521Z,23.57
2016-07-01T12:52:13.128Z,23.68
2016-07-01T12:53:11.910Z,23.6
2016-07-01T12:54:13.127Z,23.6
2016-07-01T12:55:13.162Z,23.57
2016-07-01T12:56:13.144Z,23.69
2016-07-01T12:57:12.554Z,23.72